Time;durP1;ratioP1;P1;durP2;ratioP2;P2;SDS_P1;SDS_P2;PMS_P1;PMS_P2;Temp;Humidity;BMP_temperature;BMP_pressure;BME280_temperature;BME280_humidity;BME280_pressure;Samples;Min_cycle;Max_cycle;Signal;HPM_P1;HPM_P2
2023/12/19 04:02:33;;;;;;;3.67;3.20;;;24.20;24.60;;;;;;4971604;22;45469;-81
2023/12/19 04:04:59;;;;;;;3.25;2.95;;;24.30;24.70;;;;;;4968694;28;46082;-82
2023/12/19 04:07:25;;;;;;;3.38;3.03;;;24.30;24.70;;;;;;4958306;28;45414;-82
2023/12/19 04:09:51;;;;;;;3.47;3.15;;;24.20;24.60;;;;;;4943726;28;45480;-81
2023/12/19 04:12:17;;;;;;;3.10;2.80;;;24.20;24.60;;;;;;4960388;28;45604;-81
2023/12/19 04:14:43;;;;;;;3.50;3.03;;;24.20;24.60;;;;;;5020672;28;46074;-81
2023/12/19 04:17:10;;;;;;;3.27;2.97;;;24.30;24.70;;;;;;4987521;28;46033;-82
2023/12/19 04:19:37;;;;;;;3.50;2.90;;;24.30;24.60;;;;;;4998008;28;46605;-82
2023/12/19 04:22:03;;;;;;;3.28;2.97;;;24.30;24.60;;;;;;4987887;28;46516;-82
2023/12/19 04:24:29;;;;;;;3.10;2.80;;;24.30;24.60;;;;;;4975767;28;46099;-82
2023/12/19 04:26:55;;;;;;;3.30;3.00;;;24.30;24.60;;;;;;4984919;28;45592;-82
2023/12/19 04:29:21;;;;;;;3.23;2.93;;;24.20;24.50;;;;;;4965741;28;45608;-82
2023/12/19 04:31:46;;;;;;;3.10;2.78;;;24.30;24.60;;;;;;4986520;28;45204;-80
2023/12/19 04:34:14;;;;;;;3.22;2.90;;;24.30;24.60;;;;;;4982078;28;46475;-81
2023/12/19 04:36:39;;;;;;;3.00;2.80;;;24.30;24.60;;;;;;4972837;28;45809;-83
2023/12/19 04:39:05;;;;;;;3.30;3.00;;;24.30;24.50;;;;;;4966173;28;45537;-82
2023/12/19 04:41:31;;;;;;;3.23;2.70;;;24.30;24.60;;;;;;4973142;28;45247;-81
2023/12/19 04:43:57;;;;;;;2.75;2.53;;;24.30;24.50;;;;;;4980134;28;46048;-83
2023/12/19 04:46:22;;;;;;;3.28;2.78;;;24.30;24.50;;;;;;4963786;28;45210;-82
2023/12/19 04:48:48;;;;;;;2.92;2.70;;;24.30;24.50;;;;;;4978049;28;45213;-82
2023/12/19 04:51:18;;;;;;;2.95;2.65;;;24.30;24.50;;;;;;4989536;28;45452;-82
2023/12/19 04:53:44;;;;;;;3.15;2.70;;;24.30;24.50;;;;;;4988438;28;46192;-82
2023/12/19 04:56:11;;;;;;;3.00;2.70;;;24.30;24.50;;;;;;4986077;28;45332;-82
2023/12/19 04:58:37;;;;;;;2.80;2.60;;;24.30;24.50;;;;;;4975413;28;45549;-81
2023/12/19 05:01:03;;;;;;;3.47;2.80;;;24.30;24.50;;;;;;4950392;28;45609;-82
2023/12/19 05:03:29;;;;;;;2.85;2.50;;;24.30;24.50;;;;;;4972963;28;45581;-81
2023/12/19 05:05:55;;;;;;;2.83;2.60;;;24.30;24.50;;;;;;4959401;28;45356;-82
2023/12/19 05:08:20;;;;;;;2.90;2.60;;;24.30;24.50;;;;;;4989501;28;45572;-82
2023/12/19 05:10:48;;;;;;;2.92;2.63;;;24.30;24.50;;;;;;4968922;28;45681;-81
2023/12/19 05:13:14;;;;;;;3.00;2.63;;;24.30;24.50;;;;;;4990386;28;46625;-81
2023/12/19 05:15:39;;;;;;;2.78;2.50;;;24.30;24.50;;;;;;4983677;28;45783;-82
2023/12/19 05:18:05;;;;;;;2.50;2.30;;;24.30;24.50;;;;;;4991786;28;46647;-81
2023/12/19 05:20:31;;;;;;;2.83;2.53;;;24.30;24.40;;;;;;4954974;28;45368;-81
2023/12/19 05:22:59;;;;;;;2.78;2.55;;;24.30;24.40;;;;;;4976345;28;46181;-81
2023/12/19 05:25:25;;;;;;;2.58;2.38;;;24.30;24.50;;;;;;4998302;28;45478;-81
2023/12/19 05:27:51;;;;;;;2.78;2.58;;;24.30;24.50;;;;;;4977599;28;45142;-82
2023/12/19 05:30:17;;;;;;;2.92;2.50;;;24.30;24.40;;;;;;4971651;28;45444;-81
2023/12/19 05:32:44;;;;;;;3.00;2.70;;;24.30;24.40;;;;;;4981704;28;46038;-81
2023/12/19 05:35:10;;;;;;;2.90;2.33;;;24.30;24.40;;;;;;4991812;28;45893;-81
2023/12/19 05:37:36;;;;;;;2.90;2.60;;;24.30;24.40;;;;;;4973264;28;46080;-81
2023/12/19 05:40:02;;;;;;;2.97;2.67;;;24.30;24.40;;;;;;4990247;28;44908;-80
2023/12/19 05:42:28;;;;;;;2.50;2.30;;;24.20;24.50;;;;;;4969814;28;45533;-81
2023/12/19 05:44:53;;;;;;;2.92;2.42;;;24.30;24.40;;;;;;4991456;28;45013;-80
2023/12/19 05:47:19;;;;;;;2.42;2.22;;;24.20;24.40;;;;;;4966768;28;45255;-81
2023/12/19 05:49:45;;;;;;;2.78;2.58;;;24.20;24.40;;;;;;4993715;28;44964;-81
2023/12/19 05:52:11;;;;;;;2.93;2.60;;;24.20;24.40;;;;;;4968947;28;46170;-81
2023/12/19 05:54:37;;;;;;;2.50;2.30;;;24.30;24.50;;;;;;4958181;28;45737;-81
2023/12/19 05:57:04;;;;;;;2.40;2.13;;;24.30;24.40;;;;;;5004436;28;45498;-81
2023/12/19 05:59:29;;;;;;;3.22;2.60;;;24.20;24.40;;;;;;4988823;28;45342;-82
2023/12/19 06:01:55;;;;;;;2.60;2.40;;;24.20;24.40;;;;;;4962775;28;45596;-82
2023/12/19 06:04:21;;;;;;;2.80;2.40;;;24.20;24.40;;;;;;4971963;28;45593;-82
2023/12/19 06:06:47;;;;;;;2.80;2.50;;;24.30;24.40;;;;;;4998676;28;45512;-81
2023/12/19 06:09:13;;;;;;;2.45;2.15;;;24.20;24.40;;;;;;4976391;28;45568;-81
2023/12/19 06:11:38;;;;;;;2.50;2.30;;;24.20;24.40;;;;;;4985389;28;45989;-81
2023/12/19 06:14:06;;;;;;;2.80;2.55;;;24.20;24.40;;;;;;4986927;28;63797;-81
2023/12/19 06:16:32;;;;;;;3.73;2.60;;;24.20;24.40;;;;;;4977563;28;45749;-81
2023/12/19 06:18:58;;;;;;;2.63;2.42;;;24.20;24.40;;;;;;4986504;28;45030;-81
2023/12/19 06:21:24;;;;;;;2.57;2.30;;;24.20;24.40;;;;;;4938267;28;45989;-82
2023/12/19 06:23:49;;;;;;;2.58;2.38;;;24.20;24.40;;;;;;4975061;28;45710;-81
2023/12/19 06:26:15;;;;;;;2.63;2.30;;;24.20;24.40;;;;;;4955337;28;45403;-81
2023/12/19 06:28:41;;;;;;;2.78;2.40;;;24.20;24.40;;;;;;4997761;28;45552;-82
2023/12/19 06:31:07;;;;;;;2.70;2.38;;;24.20;24.40;;;;;;4980721;28;47085;-82
2023/12/19 06:33:32;;;;;;;2.90;2.50;;;24.20;24.40;;;;;;4987955;28;45338;-81
2023/12/19 06:35:59;;;;;;;2.72;2.40;;;24.20;24.40;;;;;;4986553;28;44974;-81
2023/12/19 06:38:24;;;;;;;2.95;2.38;;;24.20;24.40;;;;;;4973216;28;45501;-81
2023/12/19 06:40:51;;;;;;;2.80;2.50;;;24.20;24.40;;;;;;4971219;28;45392;-81
2023/12/19 06:43:17;;;;;;;2.63;2.37;;;24.10;24.40;;;;;;5007025;28;45730;-81
2023/12/19 06:45:43;;;;;;;3.00;2.70;;;24.20;24.40;;;;;;4983727;28;45733;-81
2023/12/19 06:48:08;;;;;;;3.00;2.63;;;24.20;24.40;;;;;;5004357;28;45412;-81
2023/12/19 06:50:34;;;;;;;3.15;2.72;;;24.20;24.40;;;;;;4968245;28;46244;-81
2023/12/19 06:53:00;;;;;;;3.00;2.70;;;24.20;24.40;;;;;;4975100;28;45486;-82
2023/12/19 06:55:27;;;;;;;2.67;2.47;;;24.20;24.40;;;;;;4985466;28;45459;-81
2023/12/19 06:57:55;;;;;;;3.15;2.63;;;24.10;24.40;;;;;;4958564;28;45356;-81
2023/12/19 07:00:21;;;;;;;3.00;2.70;;;24.10;24.40;;;;;;4948170;28;46026;-81
2023/12/19 07:02:47;;;;;;;4.10;2.83;;;24.10;24.40;;;;;;4967094;28;45256;-81
2023/12/19 07:05:12;;;;;;;3.27;2.73;;;24.10;24.40;;;;;;4956570;28;45354;-80
2023/12/19 07:07:38;;;;;;;2.87;2.57;;;24.10;24.40;;;;;;4942476;28;45540;-81
2023/12/19 07:10:04;;;;;;;3.03;2.65;;;24.10;24.40;;;;;;4984630;28;46559;-82
2023/12/19 07:12:30;;;;;;;2.90;2.30;;;24.10;24.40;;;;;;4979642;28;47814;-81
2023/12/19 07:14:56;;;;;;;3.20;2.90;;;24.10;24.90;;;;;;4991925;28;45766;-81
2023/12/19 07:17:22;;;;;;;2.78;2.50;;;24.10;24.40;;;;;;5001729;28;45463;-81
2023/12/19 07:19:48;;;;;;;2.97;2.67;;;24.10;24.40;;;;;;5008788;28;45586;-81
2023/12/19 07:22:15;;;;;;;3.45;2.72;;;24.10;24.40;;;;;;4986124;28;45249;-81
2023/12/19 07:24:41;;;;;;;2.72;2.50;;;24.10;24.40;;;;;;4999206;28;44955;-81
2023/12/19 07:27:08;;;;;;;2.72;2.50;;;24.10;24.40;;;;;;4984600;28;48588;-81
2023/12/19 07:29:36;;;;;;;3.00;2.70;;;24.10;24.40;;;;;;5003483;28;46554;-80
2023/12/19 07:32:03;;;;;;;2.60;2.40;;;24.10;24.40;;;;;;4983275;28;45104;-81
2023/12/19 07:34:29;;;;;;;3.38;2.55;;;24.10;24.40;;;;;;4976827;28;45270;-82
2023/12/19 07:36:54;;;;;;;3.13;2.42;;;24.00;24.40;;;;;;4989536;28;45967;-81
2023/12/19 07:39:20;;;;;;;2.50;2.30;;;24.00;24.40;;;;;;4977450;28;46429;-82
2023/12/19 07:41:46;;;;;;;3.20;2.78;;;24.00;24.40;;;;;;4981946;28;45704;-80
2023/12/19 07:44:14;;;;;;;3.00;2.63;;;24.10;24.40;;;;;;4996250;28;46834;-80
2023/12/19 07:46:41;;;;;;;2.70;2.47;;;24.00;24.40;;;;;;4969164;28;45872;-81
2023/12/19 07:49:07;;;;;;;2.60;2.40;;;24.00;24.40;;;;;;4980053;28;46124;-81
2023/12/19 07:51:32;;;;;;;2.80;2.50;;;24.00;24.40;;;;;;4989938;28;45307;-80
2023/12/19 07:53:58;;;;;;;2.70;2.43;;;24.00;24.40;;;;;;4975330;28;45388;-81
2023/12/19 07:56:24;;;;;;;2.83;2.40;;;24.00;24.40;;;;;;4972336;28;45854;-81
2023/12/19 07:58:51;;;;;;;2.78;2.40;;;24.00;24.40;;;;;;4991276;28;47454;-82
2023/12/19 08:01:17;;;;;;;2.65;2.45;;;24.00;24.50;;;;;;4951399;28;45337;-82
2023/12/19 08:03:43;;;;;;;2.90;2.30;;;24.00;24.40;;;;;;4990808;28;45682;-82
2023/12/19 08:06:09;;;;;;;3.25;2.63;;;24.00;24.50;;;;;;4961745;28;45606;-82
2023/12/19 08:08:36;;;;;;;2.42;2.20;;;23.90;24.40;;;;;;4996819;28;46168;-82
2023/12/19 08:11:02;;;;;;;2.50;2.30;;;24.00;24.50;;;;;;4997412;28;45535;-81
2023/12/19 08:13:27;;;;;;;3.13;2.60;;;24.00;24.50;;;;;;5009550;28;44865;-82
2023/12/19 08:15:53;;;;;;;2.97;2.60;;;23.90;24.50;;;;;;4969868;28;45133;-81
2023/12/19 08:18:19;;;;;;;2.77;2.43;;;23.90;24.40;;;;;;4978894;28;46592;-81
2023/12/19 08:20:45;;;;;;;3.30;3.00;;;23.90;24.40;;;;;;4968794;28;45559;-81
2023/12/19 08:23:11;;;;;;;2.75;2.50;;;23.90;24.50;;;;;;4993837;28;45083;-81
2023/12/19 08:25:41;;;;;;;3.55;2.90;;;23.90;24.40;;;;;;4991502;28;45593;-81
2023/12/19 08:28:11;;;;;;;3.08;2.60;;;23.90;24.50;;;;;;4996141;28;45807;-81
2023/12/19 08:30:36;;;;;;;2.60;2.40;;;23.90;24.50;;;;;;4985764;28;45153;-80
2023/12/19 08:33:03;;;;;;;3.00;2.70;;;23.90;24.50;;;;;;4991605;28;45425;-81
2023/12/19 08:35:29;;;;;;;4.05;2.50;;;23.90;24.50;;;;;;5003346;28;45632;-81
2023/12/19 08:37:55;;;;;;;2.70;2.47;;;23.90;24.60;;;;;;4978440;28;47464;-81
2023/12/19 08:40:21;;;;;;;3.13;2.70;;;23.90;24.50;;;;;;4960249;28;45493;-80
2023/12/19 08:42:48;;;;;;;2.92;2.55;;;23.80;24.50;;;;;;4976185;28;46045;-81
2023/12/19 08:45:15;;;;;;;3.70;2.85;;;23.90;24.50;;;;;;4971280;28;45195;-82
2023/12/19 08:47:41;;;;;;;3.08;2.53;;;23.80;24.50;;;;;;4988492;28;45600;-81
2023/12/19 08:50:11;;;;;;;3.20;2.40;;;23.90;24.50;;;;;;4976424;28;46135;-81
2023/12/19 08:52:37;;;;;;;2.60;2.40;;;23.90;24.60;;;;;;4977822;28;45222;-81
2023/12/19 08:55:06;;;;;;;2.92;2.58;;;23.80;24.50;;;;;;4973352;28;45603;-80
2023/12/19 08:57:42;;;;;;;3.30;2.60;;;23.80;24.50;;;;;;4974212;28;45639;-81
2023/12/19 09:00:18;;;;;;;3.15;2.67;;;23.80;24.50;;;;;;4977492;28;45776;-81
2023/12/19 09:02:44;;;;;;;3.75;2.72;;;23.80;24.50;;;;;;4971549;28;45536;-82
2023/12/19 09:05:13;;;;;;;2.97;2.63;;;23.80;24.50;;;;;;4970626;28;45392;-81
2023/12/19 09:07:40;;;;;;;3.00;2.60;;;23.80;24.60;;;;;;4986514;28;45252;-80
2023/12/19 09:10:06;;;;;;;3.13;2.67;;;23.80;24.50;;;;;;4981695;28;45192;-81
2023/12/19 09:12:33;;;;;;;3.92;2.90;;;23.80;24.50;;;;;;4973246;28;45388;-81
2023/12/19 09:14:59;;;;;;;3.00;2.70;;;23.80;24.50;;;;;;4958463;28;45252;-81
2023/12/19 09:17:24;;;;;;;3.10;2.80;;;23.80;24.50;;;;;;4981101;28;46256;-82
2023/12/19 09:19:50;;;;;;;2.92;2.65;;;23.70;24.50;;;;;;4972733;28;45368;-82
2023/12/19 09:22:16;;;;;;;3.17;2.45;;;23.80;24.60;;;;;;4948705;28;45433;-81
2023/12/19 09:24:42;;;;;;;3.63;2.70;;;23.70;24.50;;;;;;4942430;28;46240;-81
2023/12/19 09:27:08;;;;;;;3.65;2.92;;;23.70;24.50;;;;;;4965568;28;45983;-81
2023/12/19 09:29:34;;;;;;;3.45;2.60;;;23.70;24.50;;;;;;4957861;28;45046;-82
2023/12/19 09:32:01;;;;;;;3.40;3.00;;;23.70;24.50;;;;;;4974444;28;45601;-81
2023/12/19 09:34:28;;;;;;;3.10;2.80;;;23.70;24.50;;;;;;4973547;28;44973;-81
2023/12/19 09:36:55;;;;;;;3.00;2.70;;;23.70;24.50;;;;;;4985267;28;45608;-81
2023/12/19 09:39:21;;;;;;;2.70;2.40;;;23.70;24.50;;;;;;4970070;28;45588;-82
2023/12/19 09:41:47;;;;;;;2.90;2.60;;;23.70;24.60;;;;;;4968129;28;45863;-81
2023/12/19 09:44:13;;;;;;;2.90;2.60;;;23.70;24.60;;;;;;4958598;28;45377;-81
2023/12/19 09:46:39;;;;;;;2.95;2.58;;;23.70;24.60;;;;;;4962187;28;46453;-81
2023/12/19 09:49:05;;;;;;;2.85;2.58;;;23.70;24.60;;;;;;4984458;28;45289;-81
2023/12/19 09:51:34;;;;;;;3.25;2.70;;;23.70;24.60;;;;;;4985081;28;44774;-81
2023/12/19 09:54:00;;;;;;;3.10;2.80;;;23.70;24.60;;;;;;4974670;28;45250;-82
2023/12/19 09:56:27;;;;;;;3.17;2.83;;;23.70;24.70;;;;;;4948412;28;46012;-82
2023/12/19 09:58:53;;;;;;;3.17;2.88;;;23.70;24.60;;;;;;4936767;28;45354;-81
2023/12/19 10:01:20;;;;;;;2.92;2.60;;;23.70;24.60;;;;;;4956336;28;45487;-82
2023/12/19 10:03:45;;;;;;;4.65;3.00;;;23.70;24.60;;;;;;4987151;28;45723;-81
2023/12/19 10:06:11;;;;;;;3.20;2.90;;;23.70;24.60;;;;;;4973446;28;46186;-81
2023/12/19 10:08:46;;;;;;;3.40;3.10;;;23.70;24.60;;;;;;4976378;28;45576;-81
2023/12/19 10:11:18;;;;;;;3.60;3.00;;;23.70;24.70;;;;;;4987534;28;45269;-81
2023/12/19 10:13:45;;;;;;;3.60;2.90;;;23.60;24.60;;;;;;4993480;28;45468;-81
2023/12/19 10:16:12;;;;;;;3.30;2.80;;;23.60;24.60;;;;;;4967165;28;45957;-81
2023/12/19 10:18:39;;;;;;;4.10;2.93;;;23.60;24.70;;;;;;4988390;28;45368;-81
2023/12/19 10:21:14;;;;;;;3.35;2.95;;;23.60;24.60;;;;;;4956618;28;45455;-82
2023/12/19 10:23:40;;;;;;;3.10;2.80;;;23.60;24.70;;;;;;5004226;28;45556;-82
2023/12/19 10:26:06;;;;;;;3.07;2.77;;;23.60;24.60;;;;;;4972135;28;46164;-81
2023/12/19 10:28:35;;;;;;;3.72;3.00;;;23.60;24.70;;;;;;4976379;28;45059;-82
2023/12/19 10:31:12;;;;;;;3.45;2.80;;;23.70;24.70;;;;;;4980877;28;45433;-81
2023/12/19 10:33:45;;;;;;;3.20;2.72;;;23.60;24.70;;;;;;5012407;28;45271;-81
2023/12/19 10:36:33;;;;;;;4.00;3.10;;;23.60;24.80;;;;;;4970299;28;47211;-81
2023/12/19 10:38:59;;;;;;;4.20;3.00;;;23.60;24.70;;;;;;5009898;28;44965;-81
2023/12/19 10:41:29;;;;;;;5.15;3.20;;;23.60;24.70;;;;;;4966069;28;46013;-81
2023/12/19 10:43:57;;;;;;;4.07;3.10;;;23.60;24.70;;;;;;4976129;28;45307;-80
2023/12/19 10:46:27;;;;;;;4.10;3.05;;;23.60;24.70;;;;;;4981363;28;45926;-80
2023/12/19 10:49:00;;;;;;;3.65;3.10;;;23.50;24.70;;;;;;4993097;28;45050;-80
2023/12/19 10:51:36;;;;;;;4.03;3.13;;;23.60;24.80;;;;;;4939439;28;46404;-81
2023/12/19 10:54:15;;;;;;;4.30;3.13;;;23.50;24.70;;;;;;5000990;28;45605;-81
2023/12/19 10:57:04;;;;;;;3.92;2.80;;;23.50;24.70;;;;;;4967798;28;47321;-81
2023/12/19 10:59:58;;;;;;;4.60;3.30;;;23.50;24.80;;;;;;4988487;28;45589;-80
2023/12/19 11:02:45;;;;;;;3.95;3.20;;;23.50;24.80;;;;;;4979552;28;45298;-81
2023/12/19 11:05:13;;;;;;;3.75;3.28;;;23.50;24.80;;;;;;4973432;28;45943;-81
2023/12/19 11:07:40;;;;;;;3.60;3.10;;;23.50;24.80;;;;;;5017268;28;45449;-81
2023/12/19 11:10:06;;;;;;;4.68;3.10;;;23.50;24.80;;;;;;4956428;28;45166;-80
2023/12/19 11:12:35;;;;;;;3.92;3.00;;;23.50;24.80;;;;;;4988275;28;45455;-80
2023/12/19 11:15:01;;;;;;;4.63;3.45;;;23.50;24.90;;;;;;4983814;28;45483;-81
2023/12/19 11:17:50;;;;;;;4.18;3.30;;;23.50;24.90;;;;;;4968491;28;46461;-81
2023/12/19 11:20:29;;;;;;;4.13;3.50;;;23.50;24.90;;;;;;4986440;28;45462;-80
2023/12/19 11:23:04;;;;;;;4.17;2.97;;;23.50;24.90;;;;;;5007853;28;45255;-80
2023/12/19 11:25:33;;;;;;;3.78;3.15;;;23.50;24.90;;;;;;4970273;28;45654;-81
2023/12/19 11:28:02;;;;;;;3.88;2.90;;;23.50;24.90;;;;;;4999555;28;47035;-80
2023/12/19 11:30:40;;;;;;;4.37;3.30;;;23.50;24.90;;;;;;4979919;28;44969;-80
2023/12/19 11:33:07;;;;;;;4.20;3.15;;;23.50;24.90;;;;;;4974172;28;45952;-80
2023/12/19 11:35:33;;;;;;;3.87;3.30;;;23.40;24.90;;;;;;4969956;28;45161;-81
2023/12/19 11:38:14;;;;;;;3.85;3.30;;;23.40;24.90;;;;;;4976513;28;46292;-81
2023/12/19 11:40:46;;;;;;;3.22;2.90;;;23.40;24.90;;;;;;4977505;28;45869;-80
2023/12/19 11:43:27;;;;;;;3.33;2.90;;;23.40;24.90;;;;;;4979152;28;45735;-81
2023/12/19 11:46:03;;;;;;;4.35;3.20;;;23.40;24.90;;;;;;4988728;28;45301;-80
2023/12/19 11:48:44;;;;;;;3.53;3.00;;;23.40;25.00;;;;;;4981819;28;46393;-81
2023/12/19 11:51:10;;;;;;;3.28;2.97;;;23.40;25.00;;;;;;4961365;28;45739;-80
2023/12/19 11:53:37;;;;;;;4.30;3.30;;;23.40;25.00;;;;;;4984751;28;45272;-80
2023/12/19 11:56:12;;;;;;;3.40;2.85;;;23.40;25.00;;;;;;4931330;28;45966;-81
2023/12/19 11:58:48;;;;;;;4.05;3.40;;;23.40;25.00;;;;;;4984682;28;47394;-80
2023/12/19 12:01:14;;;;;;;3.45;2.90;;;23.40;25.10;;;;;;4959231;28;46223;-81
2023/12/19 12:03:40;;;;;;;4.53;3.00;;;23.40;25.00;;;;;;4967043;28;45713;-80
2023/12/19 12:06:08;;;;;;;3.23;2.83;;;23.40;25.10;;;;;;4946672;28;45729;-80
2023/12/19 12:08:34;;;;;;;3.47;3.15;;;23.40;25.10;;;;;;4999792;28;47696;-81
2023/12/19 12:11:24;;;;;;;3.20;2.90;;;23.40;25.10;;;;;;4976136;28;45502;-81
2023/12/19 12:14:01;;;;;;;3.40;3.00;;;23.30;25.10;;;;;;4969112;28;46084;-81
2023/12/19 12:16:39;;;;;;;3.85;3.00;;;23.30;25.20;;;;;;4945613;28;45200;-81
2023/12/19 12:19:09;;;;;;;3.60;3.10;;;23.30;25.60;;;;;;4983234;28;46407;-80
2023/12/19 12:21:35;;;;;;;3.60;2.92;;;23.30;25.10;;;;;;4948711;28;45675;-81
2023/12/19 12:24:01;;;;;;;3.10;2.80;;;23.30;25.10;;;;;;5017423;28;44879;-78
2023/12/19 12:26:27;;;;;;;3.47;3.15;;;23.30;25.10;;;;;;4999432;28;46364;-81
2023/12/19 12:28:53;;;;;;;3.30;3.00;;;23.30;25.10;;;;;;4970347;28;45805;-81
2023/12/19 12:31:19;;;;;;;3.88;3.15;;;23.30;25.20;;;;;;4977029;28;46214;-80
2023/12/19 12:33:44;;;;;;;3.63;3.20;;;23.30;25.20;;;;;;4938022;28;45718;-80
2023/12/19 12:36:12;;;;;;;3.70;2.85;;;23.30;25.20;;;;;;4962658;28;45321;-79
2023/12/19 12:38:37;;;;;;;3.47;3.03;;;23.30;25.20;;;;;;4983274;28;45224;-81
2023/12/19 12:41:04;;;;;;;3.55;2.90;;;23.30;25.30;;;;;;4964071;28;45329;-79
2023/12/19 12:43:43;;;;;;;3.75;3.25;;;23.30;25.30;;;;;;4999175;28;44927;-80
2023/12/19 12:46:12;;;;;;;3.30;2.97;;;23.30;25.30;;;;;;4945981;28;45550;-80
2023/12/19 12:48:53;;;;;;;5.57;2.97;;;23.30;25.30;;;;;;4985624;28;46199;-81
2023/12/19 12:51:22;;;;;;;3.13;2.83;;;23.30;25.40;;;;;;4981451;28;45429;-81
2023/12/19 12:53:55;;;;;;;3.13;2.70;;;23.30;25.40;;;;;;4970733;28;45725;-81
2023/12/19 12:56:26;;;;;;;3.08;2.78;;;23.20;25.30;;;;;;4980178;28;45670;-80
2023/12/19 12:59:06;;;;;;;3.40;2.88;;;23.20;25.40;;;;;;4970152;28;47317;-80
2023/12/19 13:01:32;;;;;;;4.20;3.03;;;23.20;25.40;;;;;;4973531;28;45635;-81
2023/12/19 13:03:58;;;;;;;3.40;2.67;;;23.20;25.40;;;;;;4952055;28;45722;-81
2023/12/19 13:06:26;;;;;;;2.90;2.60;;;23.20;25.40;;;;;;4960529;28;45357;-81
2023/12/19 13:08:52;;;;;;;3.22;2.60;;;23.20;25.40;;;;;;4982343;28;47259;-80
2023/12/19 13:11:17;;;;;;;2.63;2.42;;;23.20;25.40;;;;;;4980357;28;45583;-80
2023/12/19 13:13:44;;;;;;;2.80;2.60;;;23.20;25.40;;;;;;5001929;28;45902;-80
2023/12/19 13:16:10;;;;;;;3.03;2.50;;;23.10;25.40;;;;;;4959047;28;45578;-79
2023/12/19 13:18:37;;;;;;;2.70;2.50;;;23.20;25.40;;;;;;4963845;28;45655;-80
2023/12/19 13:21:03;;;;;;;2.78;2.47;;;23.20;25.40;;;;;;4962086;28;45561;-80
2023/12/19 13:23:31;;;;;;;2.77;2.47;;;23.20;25.50;;;;;;4984787;28;45624;-81
2023/12/19 13:25:57;;;;;;;2.80;2.40;;;23.10;25.40;;;;;;4964730;28;45727;-80
2023/12/19 13:28:23;;;;;;;2.92;2.65;;;23.10;25.50;;;;;;4975544;28;46512;-81
2023/12/19 13:30:49;;;;;;;2.70;2.40;;;23.10;25.50;;;;;;4975453;28;46259;-79
2023/12/19 13:33:14;;;;;;;2.80;2.50;;;23.10;25.50;;;;;;4945550;28;45667;-81
2023/12/19 13:35:40;;;;;;;3.25;2.40;;;23.10;25.50;;;;;;4975720;28;45295;-80
2023/12/19 13:38:06;;;;;;;2.58;2.33;;;23.10;25.50;;;;;;4959791;28;47023;-81
2023/12/19 13:40:32;;;;;;;2.30;2.10;;;23.10;25.50;;;;;;4947572;28;45278;-81
2023/12/19 13:42:57;;;;;;;2.13;1.93;;;23.10;25.50;;;;;;4967565;28;45626;-80
2023/12/19 13:45:27;;;;;;;2.42;2.17;;;23.10;25.60;;;;;;4957704;28;46593;-81
2023/12/19 13:47:53;;;;;;;2.70;2.37;;;23.10;25.50;;;;;;4981642;28;47060;-80
2023/12/19 13:50:20;;;;;;;2.45;2.08;;;23.10;25.60;;;;;;4962878;28;46005;-80
2023/12/19 13:52:46;;;;;;;2.97;2.30;;;23.10;25.60;;;;;;4969309;28;44763;-83
2023/12/19 13:55:12;;;;;;;2.60;2.40;;;23.10;25.60;;;;;;4965800;28;45250;-81
2023/12/19 13:57:39;;;;;;;3.20;2.30;;;23.10;25.90;;;;;;4936871;28;46009;-81
2023/12/19 14:00:05;;;;;;;2.50;2.30;;;23.10;25.60;;;;;;4984967;28;45490;-80
2023/12/19 14:02:31;;;;;;;2.47;2.13;;;23.10;25.60;;;;;;4941324;28;46421;-82
2023/12/19 14:04:57;;;;;;;3.28;2.55;;;23.10;25.60;;;;;;4999013;28;45784;-83
2023/12/19 14:07:22;;;;;;;2.77;2.23;;;23.00;25.60;;;;;;4977869;28;46348;-82
2023/12/19 14:09:48;;;;;;;2.92;2.35;;;23.00;25.60;;;;;;4970705;28;45884;-80
2023/12/19 14:12:14;;;;;;;3.70;2.50;;;23.10;25.60;;;;;;4956415;28;45318;-80
2023/12/19 14:14:40;;;;;;;2.30;2.10;;;23.00;25.60;;;;;;4954128;28;47211;-80
2023/12/19 14:17:06;;;;;;;2.30;2.10;;;23.00;25.60;;;;;;4941054;28;48744;-80
2023/12/19 14:19:35;;;;;;;2.30;2.10;;;23.00;25.70;;;;;;4950000;28;45012;-80
2023/12/19 14:22:01;;;;;;;3.63;2.30;;;23.00;25.70;;;;;;4962841;28;46000;-80
2023/12/19 14:24:28;;;;;;;2.30;2.10;;;23.00;25.70;;;;;;4953413;28;45664;-80
2023/12/19 14:26:54;;;;;;;3.93;2.07;;;23.00;25.70;;;;;;4980416;28;46278;-80
2023/12/19 14:29:20;;;;;;;2.63;2.28;;;23.00;25.70;;;;;;4951991;28;45680;-80
2023/12/19 14:31:46;;;;;;;2.55;2.25;;;23.00;25.70;;;;;;4961019;28;45442;-80
2023/12/19 14:34:12;;;;;;;2.70;2.20;;;23.00;25.70;;;;;;4952238;28;45745;-81
2023/12/19 14:36:42;;;;;;;2.80;2.30;;;22.90;25.70;;;;;;4977064;28;47352;-80
2023/12/19 14:39:11;;;;;;;2.42;2.10;;;23.00;25.70;;;;;;4952858;28;45553;-80
2023/12/19 14:41:37;;;;;;;3.00;2.35;;;22.90;25.70;;;;;;4979769;28;45135;-82
2023/12/19 14:44:02;;;;;;;2.42;2.22;;;22.90;25.70;;;;;;4974530;28;45274;-79
2023/12/19 14:46:29;;;;;;;2.58;2.20;;;22.90;25.70;;;;;;4976045;28;46239;-80
2023/12/19 14:48:55;;;;;;;2.70;2.40;;;22.90;25.70;;;;;;4965261;28;45310;-79
2023/12/19 14:51:21;;;;;;;3.65;2.30;;;22.90;25.80;;;;;;4979907;28;46200;-79
2023/12/19 14:53:48;;;;;;;2.88;2.42;;;22.90;25.80;;;;;;4964919;28;45378;-80
2023/12/19 14:56:16;;;;;;;3.30;2.40;;;22.90;25.80;;;;;;4981945;28;45384;-81
2023/12/19 14:58:43;;;;;;;2.90;2.40;;;22.90;25.80;;;;;;4984553;28;45661;-81
2023/12/19 15:01:15;;;;;;;2.67;2.47;;;22.90;25.80;;;;;;4975774;28;45403;-82
2023/12/19 15:03:43;;;;;;;3.50;2.57;;;22.80;25.80;;;;;;4991397;28;45208;-82
2023/12/19 15:06:09;;;;;;;2.60;2.40;;;22.80;25.80;;;;;;4963959;28;47133;-82
2023/12/19 15:08:36;;;;;;;3.25;2.63;;;22.80;25.90;;;;;;4965583;28;45597;-82
2023/12/19 15:11:05;;;;;;;2.95;2.50;;;22.80;25.90;;;;;;5010492;28;45617;-82
2023/12/19 15:13:31;;;;;;;2.92;2.60;;;22.80;25.90;;;;;;4990206;28;45820;-82
2023/12/19 15:15:59;;;;;;;3.03;2.60;;;22.70;25.90;;;;;;4960147;28;46267;-81
2023/12/19 15:18:25;;;;;;;2.75;2.45;;;22.70;26.00;;;;;;4994737;28;45254;-81
2023/12/19 15:20:51;;;;;;;4.18;2.50;;;22.70;25.90;;;;;;4991138;28;45083;-80
2023/12/19 15:23:21;;;;;;;2.75;2.50;;;22.70;26.00;;;;;;4985072;28;45298;-80
2023/12/19 15:25:48;;;;;;;2.72;2.40;;;22.70;26.00;;;;;;4975071;28;45639;-81
2023/12/19 15:28:14;;;;;;;2.80;2.40;;;22.70;26.00;;;;;;4985140;28;45110;-80
2023/12/19 15:30:40;;;;;;;3.25;2.63;;;22.70;26.00;;;;;;4960280;28;45381;-80
2023/12/19 15:33:06;;;;;;;2.47;2.25;;;22.70;26.00;;;;;;4974342;28;45298;-81
2023/12/19 15:35:32;;;;;;;3.97;2.50;;;22.70;26.00;;;;;;4957476;28;46257;-81
2023/12/19 15:37:58;;;;;;;3.03;2.60;;;22.70;26.00;;;;;;4980568;28;45633;-81
2023/12/19 15:40:24;;;;;;;3.20;2.70;;;22.70;26.10;;;;;;4980154;28;45325;-81
2023/12/19 15:42:50;;;;;;;4.77;2.80;;;22.70;26.10;;;;;;4968997;28;45569;-81
2023/12/19 15:45:16;;;;;;;2.90;2.50;;;22.70;26.10;;;;;;4940925;28;46447;-81
2023/12/19 15:47:41;;;;;;;2.85;2.38;;;22.70;26.10;;;;;;4978648;28;45048;-80
2023/12/19 15:50:08;;;;;;;2.90;2.58;;;22.70;26.10;;;;;;4967046;28;45800;-80
2023/12/19 15:52:34;;;;;;;2.97;2.67;;;22.70;26.20;;;;;;4949651;28;45400;-81
2023/12/19 15:55:01;;;;;;;3.13;2.60;;;22.70;26.20;;;;;;4988645;28;46690;-81
2023/12/19 15:57:27;;;;;;;2.90;2.60;;;22.80;26.20;;;;;;4979868;28;45723;-81
2023/12/19 15:59:52;;;;;;;2.85;2.58;;;22.80;26.20;;;;;;4971327;28;45671;-80
2023/12/19 16:02:21;;;;;;;3.07;2.77;;;22.70;26.20;;;;;;4959917;28;45389;-80
2023/12/19 16:04:47;;;;;;;3.70;2.70;;;22.80;26.20;;;;;;4981813;28;45733;-80
2023/12/19 16:07:13;;;;;;;3.35;2.97;;;22.80;26.20;;;;;;4999948;28;45352;-79
2023/12/19 16:09:39;;;;;;;3.50;3.20;;;22.80;26.30;;;;;;4972752;28;45726;-81
2023/12/19 16:12:09;;;;;;;4.20;3.80;;;22.80;26.30;;;;;;4967667;28;46098;-81
2023/12/19 16:14:36;;;;;;;4.30;3.80;;;22.80;26.30;;;;;;4983658;28;45856;-81
2023/12/19 16:17:02;;;;;;;4.67;4.23;;;22.80;26.30;;;;;;4976111;28;45021;-81
2023/12/19 16:19:28;;;;;;;4.97;4.10;;;22.80;26.30;;;;;;4981177;28;45707;-81
2023/12/19 16:21:55;;;;;;;5.10;4.40;;;22.80;26.30;;;;;;4962943;28;45468;-80
2023/12/19 16:24:20;;;;;;;5.07;4.50;;;22.80;26.30;;;;;;4965619;28;47023;-81
2023/12/19 16:26:47;;;;;;;5.10;4.57;;;22.80;26.30;;;;;;4948273;28;45868;-80
2023/12/19 16:29:15;;;;;;;5.10;4.60;;;22.80;26.40;;;;;;4988440;28;45361;-81
2023/12/19 16:31:42;;;;;;;5.17;4.67;;;22.90;26.40;;;;;;4991455;28;45314;-80
2023/12/19 16:34:09;;;;;;;5.10;4.60;;;22.80;26.30;;;;;;4999452;28;46368;-79
2023/12/19 16:36:37;;;;;;;5.55;4.32;;;22.90;26.40;;;;;;4980983;28;45156;-79
2023/12/19 16:39:06;;;;;;;4.75;4.28;;;22.90;26.40;;;;;;4968720;28;46176;-82
2023/12/19 16:41:32;;;;;;;4.95;4.30;;;22.90;26.40;;;;;;4949620;28;46237;-81
2023/12/19 16:43:58;;;;;;;4.30;3.90;;;22.90;26.30;;;;;;4985037;28;46669;-81
2023/12/19 16:46:25;;;;;;;4.60;3.92;;;22.90;26.30;;;;;;4960100;28;45366;-81
2023/12/19 16:48:51;;;;;;;4.05;3.53;;;22.90;26.30;;;;;;4967860;28;45837;-81
2023/12/19 16:51:17;;;;;;;4.57;4.00;;;22.90;26.30;;;;;;4980085;28;46179;-81